Oxley, Arkansas
Current Conditions -  °F | °C
As of 4:35 AM on Thursday 27 Nov 2014 (Local Time) from KCCA Reporting Station
Clear Clear  
Wind Chill: 30°   Ceiling: Unl
Heat Index: 36°   Visibility: 10mi
Dew Point: 25°   Wind: 7mph
Humidity: 65%   Direction: 330°NNW
Pressure: 30.42"   Gusts: NA
Location:  35.8223°N, 92.5849°W
Report Text: KCCA 271035Z AUTO 33006KT 10SM CLR 02/M04 A3042 RMK AO2
Loading
Personal Weather Stations






























Interactive Weather Map New forecast layout! Learn more

10-Day Weather Forecast

Advertisements
Track Severe Weather on mobile